^^

Metar (rayon 200 km actualisée toutes les 30 minutes)






LFBU - Brie/Champniers, France
Distance de la station: SSE 07km
Mise à jour: 24/11/2014 14:30
Couvert
Couvert
 Wind from E
Vent: E 6 km/h
Température: 18°C
Point de Rosée: 13°C
Humidité: 73%
Nuages: Couvert
Visibilité: 10 km
Nuages details: partiellement nuageux 1128 m
partiellement nuageux 1341 m
Couvert 3962 m
2014/11/24 13:30 LFBU 241330Z AUTO 10003KT 9999 SCT037 SCT044 OVC130 18/13
LFBG - Cognac/Chateaubernard, France
Distance de la station: OSO 35km
Mise à jour: 24/11/2014 14:00
partiellement nuageux
partiellement nuageux
 Wind from variable
Vent: variable 4 km/h
Température: 16°C
Point de Rosée: 13°C
Humidité: 83%
Baromètre: 1019 hPa
Nuages: partiellement nuageux
Visibilité: 10 km
2014/11/24 13:00 LFBG 241300Z AUTO VRB02KT 9999 NSC 16/13 Q1019
 
LFBL - Limoges/Bellegarde, France
Distance de la station: E 82km
Mise à jour: 24/11/2014 14:00
partiellement nuageux
partiellement nuageux
 Wind from E
Vent: E 6 km/h
Température: 16°C
Point de Rosée: 10°C
Humidité: 68%
Baromètre: 1019 hPa
Nuages: partiellement nuageux
Visibilité: 10 km
2014/11/24 13:00 LFBL 241300Z AUTO 09003KT 9999 NSC 16/10 Q1019
LFBI - Poitiers/France
Distance de la station: N 93km
Mise à jour: 24/11/2014 14:30
Couvert
Couvert
 Wind from NE
Vent: NE 11 km/h
Température: 14°C
Point de Rosée: 12°C
Humidité: 88%
Baromètre: 1020 hPa
Nuages: Couvert
Visibilité: 10 km
Nuages details: Couvert 213 m
2014/11/24 13:30 LFBI 241330Z AUTO 05006KT 020V080 9999 OVC007 14/12 Q1020
 
LFBH - La Rochelle/France
Distance de la station: ONO 106km
Mise à jour: 24/11/2014 14:30
partiellement nuageux
partiellement nuageux
 Wind from E
Vent: E 7 km/h
Température: 15°C
Point de Rosée: 13°C
Humidité: 88%
Baromètre: 1019 hPa
Nuages: partiellement nuageux
Visibilité: 10 km
2014/11/24 13:30 LFBH 241330Z AUTO 10004KT 9999 NSC 15/13 Q1019
LFBE - Bergerac/France
Distance de la station: SSE 107km
Mise à jour: 24/11/2014 14:00
Couvert
Couvert
 Wind from E
Vent: E 4 km/h
Température: 19°C
Point de Rosée: 14°C
Humidité: 73%
Baromètre: 1018 hPa
Nuages: Couvert
Visibilité: 10 km
Nuages details: partiellement nuageux 975 m
nuageux 1585 m
Couvert 3048 m
2014/11/24 13:00 LFBE 241300Z AUTO 08002KT 9999 SCT032 BKN052 OVC100 19/14 Q1018
 
LFBD - Bordeaux/France
Distance de la station: SSO 121km
Mise à jour: 24/11/2014 14:30
Couvert
Couvert
 Wind from variable
Vent: variable 4 km/h
Température: 17°C
Point de Rosée: 15°C
Humidité: 88%
Baromètre: 1018 hPa
Nuages: Couvert
Visibilité: 10 km
Nuages details: nuageux 335 m
nuageux 2073 m
Couvert 2560 m
2014/11/24 13:30 LFBD 241330Z AUTO VRB02KT 9999 BKN011 BKN068 OVC084 17/15 Q1018
LFRI - La Roche-sur-Yon/France
Distance de la station: NO 156km
Mise à jour: 24/11/2014 14:00
Couvert
Couvert
 Wind from NE
Vent: NE 17 km/h
Température: 14°C
Point de Rosée: 12°C
Humidité: 88%
Baromètre: 1019 hPa
Nuages: Couvert
Visibilité: 10 km
Nuages details: Couvert 640 m
2014/11/24 13:00 LFRI 241300Z AUTO 05009KT 9999 OVC021 14/12 Q1019
 
LFBC - Cazaux/France
Distance de la station: SO 167km
Mise à jour: 24/11/2014 14:00
Couvert
Couvert
 Wind from variable
Vent: variable 2 km/h
Température: 16°C
Point de Rosée: 16°C
Humidité: 100%
Baromètre: 1018 hPa
Nuages: Couvert
Visibilité: 9 km
Nuages details: nuageux 213 m
Couvert 2499 m
2014/11/24 13:00 LFBC 241300Z AUTO VRB01KT 9000 BKN007 OVC082 16/16 Q1018
LFLX - Chateauroux/France
Distance de la station: NE 174km
Mise à jour: 24/11/2014 14:00
Couvert
Couvert
 Wind from ENE
Vent: ENE 13 km/h
Température: 13°C
Point de Rosée: 12°C
Humidité: 94%
Baromètre: 1021 hPa
Nuages: Couvert
Visibilité: 8 km
Nuages details: Couvert 183 m
2014/11/24 13:00 LFLX 241300Z 06007KT 8000 OVC006 13/12 Q1021 NOSIG
 
LFBA - Agen/France
Distance de la station: SSE 179km
Mise à jour: 24/11/2014 14:00
nuageux
nuageux
 Wind from ENE
Vent: ENE 9 km/h
Température: 20°C
Point de Rosée: 15°C
Humidité: 73%
Baromètre: 1018 hPa
Nuages: nuageux
Visibilité: 10 km
Nuages details: nuageux 1158 m
nuageux 3353 m
nuageux 5182 m
2014/11/24 13:00 LFBA 241300Z AUTO 06005KT 9999 BKN038 BKN110 BKN170 20/15 Q1018